createdAt,value
2022-10-03T00:00:01.889Z,79.14
2022-10-03T00:02:53.348Z,79.25
2022-10-03T00:05:35.241Z,79.53
2022-10-03T00:08:09.821Z,79.75
2022-10-03T00:10:51.493Z,79.19
2022-10-03T00:13:29.288Z,79.56
2022-10-03T00:16:10.682Z,79.38
2022-10-03T00:18:50.239Z,79.47
2022-10-03T00:21:34.719Z,79.57
2022-10-03T00:24:14.571Z,79.65
2022-10-03T00:26:50.336Z,79.63
2022-10-03T00:29:36.490Z,79.24
2022-10-03T00:32:19.266Z,79.24
2022-10-03T00:35:03.921Z,79.53
2022-10-03T00:37:37.395Z,79.24
2022-10-03T00:40:30.002Z,79.04
2022-10-03T00:43:38.460Z,78.42
2022-10-03T00:46:36.054Z,78.42
2022-10-03T00:49:29.478Z,78.59
2022-10-03T00:52:10.797Z,78.45
2022-10-03T00:54:59.762Z,78.24
2022-10-03T00:57:49.119Z,77.93
2022-10-03T01:00:20.367Z,77.37
2022-10-03T01:03:11.095Z,77.23
2022-10-03T01:05:50.526Z,77.24
2022-10-03T01:08:49.697Z,77.55
2022-10-03T01:11:33.223Z,77.19
2022-10-03T01:14:19.888Z,76.84
2022-10-03T01:17:00.441Z,76.73
2022-10-03T01:19:56.929Z,77.11
2022-10-03T01:22:50.466Z,76.81
2022-10-03T01:25:30.659Z,76.88
2022-10-03T01:28:22.671Z,76.57
2022-10-03T01:30:58.267Z,76.92
2022-10-03T01:33:32.038Z,76.83
2022-10-03T01:36:09.563Z,76.63
2022-10-03T01:38:45.492Z,76.49
2022-10-03T01:41:25.884Z,77.04
2022-10-03T01:44:00.638Z,76.98
2022-10-03T01:46:40.060Z,76.84
2022-10-03T01:49:14.757Z,76.50
2022-10-03T01:51:48.711Z,76.82
2022-10-03T01:54:26.207Z,76.48
2022-10-03T01:56:58.856Z,75.77
2022-10-03T01:59:38.537Z,75.17
2022-10-03T02:02:17.393Z,75.23
2022-10-03T02:04:53.639Z,74.81
2022-10-03T02:07:29.971Z,74.58
2022-10-03T02:10:08.100Z,75.36
2022-10-03T02:12:41.224Z,75.25
2022-10-03T02:15:17.198Z,75.28
2022-10-03T02:17:55.549Z,75.06
2022-10-03T02:20:29.401Z,74.92
2022-10-03T02:22:59.462Z,74.41
2022-10-03T02:25:51.841Z,74.28
2022-10-03T02:28:36.078Z,74.10
2022-10-03T02:31:33.756Z,73.22
2022-10-03T02:34:26.064Z,73.24
2022-10-03T02:37:16.678Z,73.12
2022-10-03T02:40:20.702Z,73.37
2022-10-03T02:43:17.010Z,73.33
2022-10-03T02:46:17.098Z,73.11
2022-10-03T02:49:11.945Z,72.87
2022-10-03T02:51:58.559Z,72.88
2022-10-03T02:54:50.182Z,73.57
2022-10-03T02:57:49.718Z,73.98
2022-10-03T03:00:21.394Z,73.67
2022-10-03T03:03:22.769Z,73.93
2022-10-03T03:06:15.917Z,73.81
2022-10-03T03:09:23.399Z,74.17
2022-10-03T03:12:20.835Z,74.79
2022-10-03T03:15:13.965Z,74.60
2022-10-03T03:17:53.686Z,74.54
2022-10-03T03:20:34.342Z,74.05
2022-10-03T03:23:20.260Z,73.93
2022-10-03T03:26:15.660Z,73.82
2022-10-03T03:28:55.698Z,73.65
2022-10-03T03:31:33.177Z,73.56
2022-10-03T03:34:09.036Z,74.16
2022-10-03T03:36:45.144Z,74.01
2022-10-03T03:39:31.036Z,73.94
2022-10-03T03:42:20.935Z,73.38
2022-10-03T03:45:03.848Z,73.71
2022-10-03T03:47:46.269Z,73.06
2022-10-03T03:50:28.422Z,73.52
2022-10-03T03:53:20.726Z,73.26
2022-10-03T03:56:06.187Z,73.14
2022-10-03T03:58:40.639Z,72.70
2022-10-03T04:01:31.611Z,72.39
2022-10-03T04:04:10.024Z,72.35
2022-10-03T04:06:54.248Z,72.60
2022-10-03T04:09:43.166Z,72.28
2022-10-03T04:12:21.887Z,72.00
2022-10-03T04:15:22.233Z,72.51
2022-10-03T04:18:33.440Z,71.92
2022-10-03T04:21:27.949Z,71.95
2022-10-03T04:24:19.753Z,72.10
2022-10-03T04:27:04.448Z,71.93
2022-10-03T04:29:59.418Z,72.00
2022-10-03T04:32:49.358Z,71.30
2022-10-03T04:35:34.162Z,71.67
2022-10-03T04:38:14.122Z,71.23
2022-10-03T04:40:51.427Z,71.09
2022-10-03T04:43:31.087Z,70.22
2022-10-03T04:46:16.269Z,71.06
2022-10-03T04:48:51.647Z,70.46
2022-10-03T04:51:32.929Z,69.99
2022-10-03T04:54:06.452Z,69.83
2022-10-03T04:56:45.223Z,69.59
2022-10-03T04:59:35.363Z,69.66
2022-10-03T05:02:12.725Z,70.18
2022-10-03T05:05:00.161Z,69.70
2022-10-03T05:07:41.421Z,70.48
2022-10-03T05:10:27.587Z,70.09
2022-10-03T05:13:02.821Z,71.02
2022-10-03T05:15:36.051Z,70.79
2022-10-03T05:18:17.786Z,71.10
2022-10-03T05:20:51.595Z,70.61
2022-10-03T05:23:31.252Z,70.82
2022-10-03T05:26:39.179Z,70.47
2022-10-03T05:29:05.470Z,70.67
2022-10-03T05:31:49.573Z,70.40
2022-10-03T05:34:28.681Z,70.86
2022-10-03T05:37:24.377Z,70.45
2022-10-03T05:39:59.979Z,70.31
2022-10-03T05:42:36.866Z,70.34
2022-10-03T05:45:09.745Z,70.09
2022-10-03T05:47:49.904Z,69.59
2022-10-03T05:50:58.788Z,69.46
2022-10-03T05:54:04.605Z,70.03
2022-10-03T05:56:58.026Z,69.55
2022-10-03T06:00:02.288Z,69.11
2022-10-03T06:03:15.101Z,68.92
2022-10-03T06:05:59.992Z,68.12
2022-10-03T06:08:53.889Z,67.37
2022-10-03T06:11:35.802Z,67.13
2022-10-03T06:14:29.996Z,66.38
2022-10-03T06:17:14.013Z,66.20
2022-10-03T06:19:51.319Z,66.01
2022-10-03T06:22:54.579Z,65.85
2022-10-03T06:26:02.187Z,66.00
2022-10-03T06:28:56.985Z,65.91
2022-10-03T06:32:12.334Z,65.65
2022-10-03T06:35:12.135Z,65.67
2022-10-03T06:38:27.871Z,66.24
2022-10-03T06:41:21.652Z,66.25
2022-10-03T06:44:12.428Z,66.10
2022-10-03T06:46:56.051Z,65.66
2022-10-03T06:49:53.214Z,64.68
2022-10-03T06:52:56.412Z,64.33
2022-10-03T06:55:54.246Z,64.71
2022-10-03T06:59:05.063Z,64.04
2022-10-03T07:02:03.148Z,63.61
2022-10-03T07:05:04.625Z,63.64
2022-10-03T07:08:07.323Z,63.74
2022-10-03T07:10:58.980Z,64.43
2022-10-03T07:14:13.024Z,63.88
2022-10-03T07:17:01.390Z,64.08
2022-10-03T07:19:56.456Z,64.39
2022-10-03T07:23:01.285Z,64.80
2022-10-03T07:25:46.021Z,64.80
2022-10-03T07:28:38.925Z,65.06
2022-10-03T07:31:15.337Z,65.09
2022-10-03T07:34:08.033Z,64.45
2022-10-03T07:37:13.674Z,63.64
2022-10-03T07:40:06.497Z,63.79
2022-10-03T07:42:55.347Z,63.44
2022-10-03T07:45:39.513Z,63.49
2022-10-03T07:48:55.221Z,63.94
2022-10-03T07:51:30.487Z,63.79
2022-10-03T07:54:31.746Z,63.45
2022-10-03T07:57:38.045Z,63.81
2022-10-03T08:00:17.680Z,63.82
2022-10-03T08:03:18.264Z,63.51
2022-10-03T08:06:01.869Z,63.17
2022-10-03T08:08:56.838Z,62.30
2022-10-03T08:11:48.058Z,62.87
2022-10-03T08:14:20.115Z,63.46
2022-10-03T08:17:21.181Z,63.70
2022-10-03T08:20:08.321Z,63.71
2022-10-03T08:22:48.842Z,64.13
2022-10-03T08:25:28.928Z,63.43
2022-10-03T08:28:17.777Z,63.81
2022-10-03T08:31:08.155Z,63.58
2022-10-03T08:34:00.268Z,63.83
2022-10-03T08:37:22.647Z,63.93
2022-10-03T08:40:36.802Z,64.16
2022-10-03T08:43:36.482Z,64.83
2022-10-03T08:46:14.703Z,64.98
2022-10-03T08:49:03.121Z,65.64
2022-10-03T08:52:02.952Z,65.79
2022-10-03T08:54:46.052Z,66.30
2022-10-03T08:57:33.992Z,66.63
2022-10-03T09:00:21.014Z,66.19
2022-10-03T09:03:34.310Z,66.28
2022-10-03T09:06:58.582Z,66.45
2022-10-03T09:10:14.253Z,66.39
2022-10-03T09:13:20.158Z,66.54
2022-10-03T09:16:25.044Z,66.48
2022-10-03T09:19:07.336Z,67.04
2022-10-03T09:22:09.528Z,67.11
2022-10-03T09:25:13.045Z,67.93
2022-10-03T09:28:25.462Z,67.77
2022-10-03T09:31:04.934Z,67.68
2022-10-03T09:34:12.661Z,67.19
2022-10-03T09:37:21.872Z,66.40
2022-10-03T09:40:26.949Z,66.10
2022-10-03T09:43:11.217Z,65.78
2022-10-03T09:46:11.169Z,65.20
2022-10-03T09:49:16.473Z,64.95
2022-10-03T09:51:55.334Z,64.09
2022-10-03T09:55:07.533Z,64.63
2022-10-03T09:58:12.505Z,64.88
2022-10-03T10:01:11.834Z,67.24
2022-10-03T10:04:37.557Z,68.30
2022-10-03T10:07:36.997Z,68.88
2022-10-03T10:10:28.452Z,69.08
2022-10-03T10:13:25.263Z,67.89
2022-10-03T10:16:22.809Z,67.88
2022-10-03T10:19:16.252Z,67.50
2022-10-03T10:22:14.480Z,65.34
2022-10-03T10:25:14.247Z,65.98
2022-10-03T10:28:32.964Z,66.59
2022-10-03T10:31:55.063Z,66.24
2022-10-03T10:35:17.458Z,65.50
2022-10-03T10:38:11.240Z,65.12
2022-10-03T10:41:18.322Z,65.17
2022-10-03T10:44:20.857Z,65.13
2022-10-03T10:47:21.388Z,67.35
2022-10-03T10:50:31.504Z,68.76
2022-10-03T10:53:38.181Z,69.13
2022-10-03T10:56:57.903Z,69.15
2022-10-03T10:59:58.034Z,68.69
2022-10-03T11:03:10.702Z,68.22
2022-10-03T11:06:08.356Z,68.29
2022-10-03T11:09:11.897Z,67.92
2022-10-03T11:12:25.242Z,67.44
2022-10-03T11:15:25.888Z,66.40
2022-10-03T11:18:27.203Z,66.24
2022-10-03T11:21:39.138Z,65.53
2022-10-03T11:24:45.816Z,63.77
2022-10-03T11:27:59.348Z,63.75
2022-10-03T11:31:09.476Z,63.79
2022-10-03T11:34:13.639Z,63.79
2022-10-03T11:37:09.161Z,64.05
2022-10-03T11:39:45.385Z,63.79
2022-10-03T11:42:25.661Z,63.17
2022-10-03T11:44:59.956Z,61.68
2022-10-03T11:47:46.251Z,59.22
2022-10-03T11:50:38.548Z,59.31
2022-10-03T11:53:17.933Z,59.94
2022-10-03T11:55:52.507Z,58.15
2022-10-03T11:58:36.430Z,57.56
2022-10-03T12:01:24.642Z,57.15
2022-10-03T12:04:08.544Z,54.25
2022-10-03T12:07:10.869Z,53.43
2022-10-03T12:09:48.832Z,54.41
2022-10-03T12:12:28.069Z,54.55
2022-10-03T12:15:04.493Z,53.01
2022-10-03T12:17:38.019Z,53.13
2022-10-03T12:20:19.233Z,52.81
2022-10-03T12:22:53.128Z,52.29
2022-10-03T12:25:24.216Z,52.63
2022-10-03T12:28:01.669Z,52.57
2022-10-03T12:30:35.736Z,53.01
2022-10-03T12:33:19.988Z,52.88
2022-10-03T12:35:55.362Z,52.22
2022-10-03T12:38:48.911Z,52.82
2022-10-03T12:41:35.957Z,52.42
2022-10-03T12:44:20.667Z,53.21
2022-10-03T12:46:58.805Z,52.74
2022-10-03T12:49:45.696Z,53.04
2022-10-03T12:52:22.818Z,52.64
2022-10-03T12:55:02.641Z,53.23
2022-10-03T12:57:47.332Z,53.15
2022-10-03T13:00:21.890Z,52.61
2022-10-03T13:03:05.172Z,52.85
2022-10-03T13:06:12.937Z,52.88
2022-10-03T13:08:55.287Z,52.47
2022-10-03T13:11:32.563Z,52.40
2022-10-03T13:14:17.570Z,51.87
2022-10-03T13:16:58.800Z,51.65
2022-10-03T13:19:31.501Z,50.68
2022-10-03T13:22:09.716Z,51.06
2022-10-03T13:24:43.766Z,50.35
2022-10-03T13:27:32.721Z,50.33
2022-10-03T13:30:07.144Z,50.60
2022-10-03T13:32:37.569Z,50.40
2022-10-03T13:35:35.497Z,50.31
2022-10-03T13:38:33.176Z,51.60
2022-10-03T13:41:13.413Z,52.54
2022-10-03T13:43:47.989Z,53.09
2022-10-03T13:46:20.108Z,53.66
2022-10-03T13:49:01.802Z,55.02
2022-10-03T13:51:41.624Z,55.97
2022-10-03T13:54:21.066Z,56.43
2022-10-03T13:56:55.285Z,56.06
2022-10-03T13:59:37.602Z,56.41
2022-10-03T14:02:20.208Z,56.10
2022-10-03T14:04:59.859Z,55.97
2022-10-03T14:07:39.769Z,55.56
2022-10-03T14:10:24.642Z,55.04
2022-10-03T14:13:06.490Z,55.59
2022-10-03T14:15:45.098Z,55.69
2022-10-03T14:18:26.809Z,55.19
2022-10-03T14:21:27.449Z,54.93
2022-10-03T14:24:05.945Z,55.21
2022-10-03T14:26:40.208Z,55.22
2022-10-03T14:29:18.551Z,55.80
2022-10-03T14:31:57.355Z,55.31
2022-10-03T14:34:42.187Z,54.74
2022-10-03T14:37:24.893Z,54.15
2022-10-03T14:40:05.045Z,53.66
2022-10-03T14:43:07.438Z,52.53
2022-10-03T14:45:40.667Z,52.13
2022-10-03T14:48:14.012Z,52.88
2022-10-03T14:50:43.630Z,53.60
2022-10-03T14:53:18.897Z,53.33
2022-10-03T14:55:56.978Z,53.71
2022-10-03T14:58:32.407Z,52.92
2022-10-03T15:01:10.642Z,51.82
2022-10-03T15:03:41.543Z,52.71
2022-10-03T15:06:34.827Z,54.44
2022-10-03T15:09:06.077Z,55.77
2022-10-03T15:11:36.869Z,55.53
2022-10-03T15:14:10.026Z,55.26
2022-10-03T15:16:45.280Z,55.05
2022-10-03T15:19:18.043Z,54.93
2022-10-03T15:21:47.572Z,55.79
2022-10-03T15:24:25.247Z,57.08
2022-10-03T15:27:01.479Z,57.86
2022-10-03T15:29:32.196Z,58.92
2022-10-03T15:32:01.046Z,60.22
2022-10-03T15:34:33.314Z,60.36
2022-10-03T15:37:08.006Z,61.42
2022-10-03T15:39:40.366Z,61.80
2022-10-03T15:42:22.924Z,62.87
2022-10-03T15:44:54.628Z,62.91
2022-10-03T15:47:25.742Z,63.18
2022-10-03T15:49:57.062Z,63.20
2022-10-03T15:52:32.675Z,62.64
2022-10-03T15:55:12.661Z,62.13
2022-10-03T15:57:46.366Z,61.70
2022-10-03T16:00:24.635Z,61.78
2022-10-03T16:02:57.994Z,61.75
2022-10-03T16:05:27.838Z,61.87
2022-10-03T16:08:01.445Z,62.03
2022-10-03T16:10:35.269Z,62.25
2022-10-03T16:13:15.508Z,62.27
2022-10-03T16:16:10.239Z,63.05
2022-10-03T16:18:48.283Z,63.14
2022-10-03T16:21:21.842Z,63.36
2022-10-03T16:23:54.876Z,63.70
2022-10-03T16:26:28.807Z,64.03
2022-10-03T16:29:05.476Z,64.76
2022-10-03T16:31:40.694Z,65.09
2022-10-03T16:34:15.553Z,65.32
2022-10-03T16:36:45.703Z,65.64
2022-10-03T16:39:22.796Z,65.55
2022-10-03T16:41:54.306Z,66.01
2022-10-03T16:44:27.053Z,66.13
2022-10-03T16:47:02.448Z,66.25
2022-10-03T16:49:58.640Z,65.88
2022-10-03T16:52:33.331Z,65.94
2022-10-03T16:55:06.891Z,65.81
2022-10-03T16:57:45.608Z,65.68
2022-10-03T17:00:18.691Z,65.84
2022-10-03T17:02:49.042Z,65.09
2022-10-03T17:05:18.552Z,65.16
2022-10-03T17:07:49.269Z,65.01
2022-10-03T17:10:30.027Z,65.56
2022-10-03T17:13:03.541Z,65.14
2022-10-03T17:15:36.982Z,65.15
2022-10-03T17:18:23.294Z,65.61
2022-10-03T17:20:57.568Z,65.55
2022-10-03T17:23:31.970Z,65.61
2022-10-03T17:26:06.851Z,65.78
2022-10-03T17:28:44.499Z,65.26
2022-10-03T17:31:29.374Z,65.62
2022-10-03T17:34:05.834Z,65.45
2022-10-03T17:36:50.558Z,65.24
2022-10-03T17:39:33.065Z,65.53
2022-10-03T17:42:09.042Z,65.10
2022-10-03T17:44:47.733Z,65.44
2022-10-03T17:47:23.111Z,65.22
2022-10-03T17:50:00.003Z,64.32
2022-10-03T17:52:29.448Z,64.42
2022-10-03T17:55:02.075Z,64.51
2022-10-03T17:57:36.902Z,64.48
2022-10-03T18:00:09.657Z,64.75
2022-10-03T18:02:45.222Z,64.07
2022-10-03T18:05:18.505Z,63.91
2022-10-03T18:07:48.057Z,63.75
2022-10-03T18:10:25.544Z,64.06
2022-10-03T18:12:57.316Z,63.96
2022-10-03T18:15:42.436Z,63.69
2022-10-03T18:18:46.227Z,63.85
2022-10-03T18:21:25.911Z,63.44
2022-10-03T18:24:14.562Z,63.78
2022-10-03T18:26:46.126Z,63.65
2022-10-03T18:29:25.712Z,63.74
2022-10-03T18:31:58.752Z,63.81
2022-10-03T18:34:34.779Z,64.03
2022-10-03T18:37:37.858Z,63.52
2022-10-03T18:40:14.063Z,63.86
2022-10-03T18:42:41.958Z,63.49
2022-10-03T18:45:20.482Z,63.47
2022-10-03T18:47:54.000Z,63.32
2022-10-03T18:50:30.215Z,63.70
2022-10-03T18:53:05.496Z,63.78
2022-10-03T18:55:40.781Z,63.67
2022-10-03T18:58:18.349Z,63.55
2022-10-03T19:00:52.617Z,63.74
2022-10-03T19:03:27.429Z,63.74
2022-10-03T19:06:01.222Z,63.88
2022-10-03T19:08:39.440Z,63.80
2022-10-03T19:11:21.012Z,63.63
2022-10-03T19:14:00.917Z,63.63
2022-10-03T19:16:49.870Z,63.68
2022-10-03T19:19:26.914Z,63.76
2022-10-03T19:21:56.008Z,63.67
2022-10-03T19:24:53.509Z,63.67
2022-10-03T19:27:21.092Z,63.76
2022-10-03T19:29:52.064Z,63.45
2022-10-03T19:32:27.563Z,63.71
2022-10-03T19:35:00.393Z,63.93
2022-10-03T19:37:45.106Z,63.97
2022-10-03T19:40:23.453Z,63.81
2022-10-03T19:42:58.320Z,63.76
2022-10-03T19:45:26.621Z,63.81
2022-10-03T19:47:59.399Z,63.98
2022-10-03T19:50:29.378Z,63.83
2022-10-03T19:52:57.553Z,64.34
2022-10-03T19:55:32.404Z,64.43
2022-10-03T19:58:02.289Z,64.19
2022-10-03T20:00:32.710Z,64.35
2022-10-03T20:03:13.848Z,64.19
2022-10-03T20:06:02.422Z,63.85
2022-10-03T20:08:39.130Z,64.34
2022-10-03T20:11:35.121Z,63.67
2022-10-03T20:14:03.668Z,63.65
2022-10-03T20:16:35.995Z,64.02
2022-10-03T20:19:09.866Z,64.17
2022-10-03T20:21:38.018Z,64.02
2022-10-03T20:24:12.687Z,63.77
2022-10-03T20:26:50.593Z,63.45
2022-10-03T20:29:28.445Z,63.71
2022-10-03T20:32:01.334Z,63.85
2022-10-03T20:34:29.942Z,63.45
2022-10-03T20:37:14.000Z,63.29
2022-10-03T20:39:46.241Z,63.54
2022-10-03T20:42:19.479Z,63.51
2022-10-03T20:44:57.804Z,63.85
2022-10-03T20:47:52.116Z,63.62
2022-10-03T20:50:25.731Z,64.08
2022-10-03T20:52:55.730Z,64.11
2022-10-03T20:55:27.461Z,63.63
2022-10-03T20:58:13.157Z,64.39
2022-10-03T21:00:48.681Z,64.71
2022-10-03T21:03:28.480Z,64.42
2022-10-03T21:05:59.174Z,64.34
2022-10-03T21:08:30.542Z,64.53
2022-10-03T21:11:01.987Z,64.76
2022-10-03T21:13:36.161Z,64.60
2022-10-03T21:16:19.290Z,64.74
2022-10-03T21:18:50.725Z,64.94
2022-10-03T21:21:25.026Z,65.37
2022-10-03T21:23:57.770Z,65.40
2022-10-03T21:26:31.091Z,65.47
2022-10-03T21:29:27.775Z,65.96
2022-10-03T21:32:09.566Z,65.50
2022-10-03T21:34:45.668Z,66.25
2022-10-03T21:37:19.139Z,66.38
2022-10-03T21:39:59.607Z,66.26
2022-10-03T21:42:34.348Z,66.82
2022-10-03T21:45:19.000Z,66.66
2022-10-03T21:47:51.522Z,67.15
2022-10-03T21:50:25.644Z,67.15
2022-10-03T21:53:16.177Z,67.38
2022-10-03T21:55:54.724Z,67.44
2022-10-03T21:58:45.201Z,67.43
2022-10-03T22:01:21.065Z,67.42
2022-10-03T22:03:55.846Z,67.47
2022-10-03T22:06:25.772Z,67.48
2022-10-03T22:08:54.707Z,67.88
2022-10-03T22:11:31.686Z,67.89
2022-10-03T22:14:10.152Z,67.47
2022-10-03T22:16:46.333Z,67.54
2022-10-03T22:19:22.907Z,68.35
2022-10-03T22:22:10.808Z,68.30
2022-10-03T22:24:51.377Z,67.57
2022-10-03T22:27:25.205Z,68.68
2022-10-03T22:30:02.558Z,68.11
2022-10-03T22:32:37.408Z,68.09
2022-10-03T22:35:19.300Z,67.69
2022-10-03T22:37:47.243Z,67.29
2022-10-03T22:40:15.240Z,67.65
2022-10-03T22:42:46.572Z,67.85
2022-10-03T22:45:16.940Z,68.17
2022-10-03T22:47:50.414Z,67.92
2022-10-03T22:50:22.361Z,68.39
2022-10-03T22:52:52.674Z,68.06
2022-10-03T22:55:23.369Z,68.90
2022-10-03T22:57:53.159Z,69.66
2022-10-03T23:00:24.503Z,69.88
2022-10-03T23:02:59.946Z,70.27
2022-10-03T23:05:44.620Z,71.15
2022-10-03T23:08:28.176Z,71.81
2022-10-03T23:11:01.217Z,72.70
2022-10-03T23:13:37.362Z,73.06
2022-10-03T23:16:17.553Z,73.83
2022-10-03T23:18:59.221Z,73.97
2022-10-03T23:21:27.660Z,74.46
2022-10-03T23:24:08.447Z,74.54
2022-10-03T23:26:55.106Z,74.46
2022-10-03T23:29:23.660Z,75.14
2022-10-03T23:31:58.799Z,75.55
2022-10-03T23:35:08.011Z,75.71
2022-10-03T23:37:53.565Z,75.67
2022-10-03T23:40:35.985Z,75.88
2022-10-03T23:43:28.476Z,74.96
2022-10-03T23:46:01.101Z,74.69
2022-10-03T23:48:32.318Z,75.05
2022-10-03T23:51:04.690Z,74.99
2022-10-03T23:53:38.697Z,74.37
2022-10-03T23:56:23.819Z,74.26
2022-10-03T23:58:57.418Z,74.79
